YEE weather

Huronia Airport
Midland, Ontario, Canada

Public forecast

Using degrees Celsius for public forecast. Weather courtesy of forecast.io.

Closest aviation weather report (METAR) to Huronia Airport

Closest report is CFB Borden, 24.7 nm (45.8 km) S. Retrieved 2019/10/21 03:14 UTC (16 minutes ago):

CYBN 210314Z AUTO 18003KT 6SM CLR 04/04 A3000

Closest aviation forecast (TAF) to Huronia Airport

Forecast is more than 12 hours old.

Closest forecast is CFB Borden, 24.7 nm (45.8 km) S. Retrieved 2019/10/18 18:33 UTC (2 days ago):

TAF TAF CYBN 181730Z 1818/1906 33010KT P6SM BKN020 BECMG 1818/1819 SCT025 SCT240 BECMG 1823/1901 VRB03KT RMK FCST BASED ON AUTO OBS NXT FCST BY 190000Z